Terminal Aerodrome Forecast
Issued by NWS Austin/San Antonio, TX

Home | Current Version | Previous Version | Text Only | Print | Product List | Glossary On
Versions: 1 2 3 4 5 6 7 8 9 10 11 12 13 14
425
FTUS44 KEWX 250520
TAFSAT
TAF
KSAT 250520Z 2506/2612 13007KT P6SM FEW250
     FM251100 15005KT P6SM FEW030 BKN250
     FM252100 36012KT P6SM VCTS BKN035CB
     FM260100 36014KT P6SM OVC025
     FM260900 34006KT P6SM BKN040=

USA.gov is the U.S. government's official web portal to all federal, state and local government web resources and services.